Captain Ed — WDF6338 — position and weather

sailwx.info

Track history (hours):
 
Tides and Currents Weather Stations Pressure Air Temp Water Temp Dewpoint Dewpoint Depression Visibility Wind Speed Wind Dir Waves Ship Positions

Captain Ed

Owner: Norfolk Dredging Company, Chesapeake, VA. More information available from US FCC via Universal Licensing System and Coast Guard Vessel Documentation Center.

Last reported at 2015-Jan-28 05:33 UTC. Time now 2015-Jan-28 06:37 UTC.
Position N 39°11' W 076°26'.

Length 22 m; draft 3 m.

Type: Tug. MMSI: 367473210.

Date/timePositionNaut miles runAvg speedWind from/ knotsBaromVisibWave heightAir tempDewpointWater temp
2015-Jan-28 05:33N 39°11' W 076°26'0 0.0
2015-Jan-28 04:30N 39°11' W 076°26'0 0.0
2015-Jan-28 03:32N 39°11' W 076°26'0 0.0
2015-Jan-28 02:33N 39°11' W 076°26'0 0.0
2015-Jan-28 01:33N 39°11' W 076°26'0 0.0
2015-Jan-28 00:33N 39°11' W 076°26'0 0.0
2015-Jan-27 23:33N 39°11' W 076°26'0 0.0
2015-Jan-27 22:33N 39°11' W 076°26'0 0.4
2015-Jan-27 21:33N 39°11' W 076°27'0 0.4
2015-Jan-27 20:28N 39°11' W 076°26'1 0.7
2015-Jan-27 19:33N 39°10' W 076°26'1 0.5
2015-Jan-27 18:33N 39°10' W 076°25'1 0.6
2015-Jan-27 16:33N 39°11' W 076°26'0 0.5
2015-Jan-27 15:33N 39°10' W 076°26'0 0.0
2015-Jan-27 14:31N 39°10' W 076°26'1 0.7
2015-Jan-27 13:33N 39°10' W 076°25'1 0.7
2015-Jan-27 12:27N 39°10' W 076°26'0 0.0
2015-Jan-27 11:27N 39°10' W 076°26'0 0.0
2015-Jan-27 10:30N 39°10' W 076°26'0 0.0
2015-Jan-27 09:11N 39°10' W 076°26'0 0.0
2015-Jan-27 08:33N 39°10' W 076°26'0 0.0
2015-Jan-27 07:33N 39°10' W 076°26'0 0.0
2015-Jan-27 06:33N 39°11' W 076°26'0 0.0
2015-Jan-27 05:33N 39°11' W 076°26'0 0.0
2015-Jan-27 04:33N 39°11' W 076°26'0 0.0
2015-Jan-27 03:33N 39°11' W 076°26'0 0.0
2015-Jan-27 02:33N 39°11' W 076°26'0 0.0
2015-Jan-27 01:33N 39°11' W 076°26'0 0.0
2015-Jan-27 00:33N 39°11' W 076°26'0 0.0
2015-Jan-26 23:33N 39°11' W 076°26'1 0.8
2015-Jan-26 22:33N 39°10' W 076°25'0 0.0
2015-Jan-26 21:33N 39°10' W 076°25'0 0.0
2015-Jan-26 20:33N 39°10' W 076°25'0 0.0
2015-Jan-26 19:33N 39°10' W 076°25'1 0.7
2015-Jan-26 18:33N 39°10' W 076°26'0 0.2
2015-Jan-26 17:33N 39°11' W 076°26'0 0.0
2015-Jan-26 16:33N 39°11' W 076°26'0 0.0
2015-Jan-26 15:34N 39°11' W 076°26'0 0.0
2015-Jan-26 14:34N 39°11' W 076°26'0 0.0
2015-Jan-26 13:33N 39°11' W 076°26'0 0.0
2015-Jan-26 12:33N 39°11' W 076°26'0 0.0
2015-Jan-26 11:33N 39°11' W 076°26'0 0.0
2015-Jan-26 10:34N 39°11' W 076°26'0 0.0
2015-Jan-26 09:28N 39°11' W 076°26'0 0.1
2015-Jan-26 08:31N 39°11' W 076°26'0 0.1
2015-Jan-26 07:33N 39°11' W 076°26'0 0.0
2015-Jan-26 06:33N 39°11' W 076°26'0 0.0
2015-Jan-26 05:33N 39°11' W 076°26'0 0.0
2015-Jan-26 04:33N 39°11' W 076°26'0 0.0
2015-Jan-26 03:34N 39°11' W 076°26'0 0.0
2015-Jan-26 02:33N 39°10' W 076°26'0 0.0
2015-Jan-26 01:33N 39°10' W 076°26'0 0.0
2015-Jan-26 00:34N 39°10' W 076°26'0 0.0
2015-Jan-25 23:34N 39°10' W 076°26'0 0.1
2015-Jan-25 22:32N 39°10' W 076°26'0 0.0
2015-Jan-25 21:33N 39°10' W 076°26'0 0.0
2015-Jan-25 20:33N 39°10' W 076°26'0 0.0
2015-Jan-25 19:27N 39°10' W 076°26'0 0.0
2015-Jan-25 18:22N 39°10' W 076°26'0 0.0
2015-Jan-25 17:17N 39°10' W 076°26'1 0.7
2015-Jan-25 16:09N 39°10' W 076°25'1 1.2
2015-Jan-25 15:34N 39°10' W 076°26'1 0.6
2015-Jan-25 14:33N 39°10' W 076°25'1 0.7
2015-Jan-25 13:33N 39°10' W 076°26'0 0.0
2015-Jan-25 12:32N 39°10' W 076°26'0 0.0
2015-Jan-25 11:33N 39°10' W 076°26'0 0.0
2015-Jan-25 10:33N 39°10' W 076°26'0 0.4
2015-Jan-25 09:33N 39°10' W 076°26'0 0.4
2015-Jan-25 08:33N 39°10' W 076°26'0 0.0
2015-Jan-25 07:33N 39°10' W 076°26'0 0.0
2015-Jan-25 06:32N 39°10' W 076°26'0 0.0
2015-Jan-25 05:33N 39°11' W 076°26'0 0.0
2015-Jan-25 04:33N 39°11' W 076°26'0 0.0
2015-Jan-25 03:33N 39°11' W 076°26'9 7.1
2015-Jan-25 02:16N 39°02' W 076°23'3 0.7
2015-Jan-24 21:31N 38°59' W 076°23'8 8.1
2015-Jan-24 20:33N 39°07' W 076°24'5 4.5
2015-Jan-24 19:33N 39°11' W 076°26'0 0.0
2015-Jan-24 18:33N 39°11' W 076°26'0 0.1
2015-Jan-24 17:32N 39°11' W 076°26'0 0.0
2015-Jan-24 16:33N 39°11' W 076°26'0 0.1
2015-Jan-24 15:30N 39°11' W 076°26'0 0.4
2015-Jan-24 14:33N 39°11' W 076°26'0 0.3
2015-Jan-24 13:32N 39°11' W 076°26'0 0.0
2015-Jan-24 12:26N 39°11' W 076°26'0 0.0
2015-Jan-24 11:23N 39°11' W 076°26'1 1.2
2015-Jan-24 10:31N 39°10' W 076°25'0 0.1
2015-Jan-24 09:33N 39°10' W 076°25'19 1.9
2015-Jan-23 23:15N 38°51' W 076°25'5 6.4
2015-Jan-23 22:31N 38°55' W 076°24'7 6.8
2015-Jan-23 21:30N 39°02' W 076°23'7 7.1
2015-Jan-23 20:33N 39°09' W 076°25'1 1.1
2015-Jan-23 19:20N 39°10' W 076°25'2 2.0
2015-Jan-23 18:33N 39°11' W 076°27'7 6.8
2015-Jan-23 17:33N 39°15' W 076°34'0 0.0
2015-Jan-23 16:13N 39°15' W 076°34'0 0.0
2015-Jan-23 15:28N 39°15' W 076°34'0 0.0
2015-Jan-23 14:31N 39°15' W 076°34'0 0.0
2015-Jan-23 13:33N 39°15' W 076°34'0 0.0
2015-Jan-23 12:33N 39°15' W 076°34'2 1.9
2015-Jan-23 11:33N 39°14' W 076°32'6 6.4
2015-Jan-23 10:33N 39°10' W 076°25'1 0.7
2015-Jan-23 09:33N 39°10' W 076°26'1 0.6
2015-Jan-23 08:20N 39°10' W 076°25'0 0.0
2015-Jan-23 05:33N 39°10' W 076°25'0 0.0
2015-Jan-23 04:33N 39°10' W 076°25'1 0.6
2015-Jan-23 03:32N 39°10' W 076°26'1 0.6
2015-Jan-23 02:33N 39°10' W 076°25'0 0.0
2015-Jan-23 01:33N 39°10' W 076°25'0 0.0
2015-Jan-23 00:33N 39°10' W 076°25'14 2.6
2015-Jan-22 19:16N 38°56' W 076°24'1010.2
2015-Jan-22 18:19N 39°06' W 076°24'4 2.0
2015-Jan-22 16:18N 39°10' W 076°25'0 0.0
2015-Jan-22 15:16N 39°10' W 076°25'0 0.0
2015-Jan-22 14:33N 39°10' W 076°25'1 1.0
2015-Jan-22 13:33N 39°11' W 076°26'0 0.0
2015-Jan-22 12:33N 39°11' W 076°26'0 0.0
2015-Jan-22 11:33N 39°11' W 076°26'0 0.0
2015-Jan-22 10:33N 39°11' W 076°26'0 0.1
2015-Jan-22 09:31N 39°11' W 076°26'0 0.1
2015-Jan-22 08:33N 39°11' W 076°26'0 0.1
2015-Jan-22 07:33N 39°11' W 076°26'0 0.0
2015-Jan-22 06:33N 39°11' W 076°26'0 0.0
2015-Jan-22 05:33N 39°11' W 076°26'0 0.0
2015-Jan-22 04:33N 39°11' W 076°26'0 0.0
2015-Jan-22 03:33N 39°11' W 076°26'0 0.0
2015-Jan-22 02:32N 39°11' W 076°26'0 0.0
2015-Jan-22 01:33N 39°11' W 076°26'0 0.4
2015-Jan-22 00:33N 39°11' W 076°27'0 0.0
2015-Jan-21 23:33N 39°11' W 076°27'1 1.8
2015-Jan-21 22:49N 39°10' W 076°25'0 0.7
2015-Jan-21 22:46N 39°10' W 076°25'1 4.4
2015-Jan-21 22:34N 39°11' W 076°26'0 0.4
2015-Jan-21 21:33N 39°11' W 076°27'0 0.0
2015-Jan-21 20:33N 39°11' W 076°27'0 0.5
2015-Jan-21 19:34N 39°11' W 076°26'0 0.0
2015-Jan-21 18:33N 39°11' W 076°26'0 0.0
2015-Jan-21 17:33N 39°11' W 076°26'0 0.1
2015-Jan-21 16:33N 39°11' W 076°26'0 0.1
2015-Jan-21 15:33N 39°11' W 076°26'0 0.5
2015-Jan-21 14:33N 39°11' W 076°27'0 0.0
2015-Jan-21 13:33N 39°11' W 076°27'0 0.2
2015-Jan-21 12:33N 39°11' W 076°26'0 0.2
2015-Jan-21 11:31N 39°11' W 076°27'0 0.0
2015-Jan-21 10:33N 39°11' W 076°27'0 0.0
2015-Jan-21 09:33N 39°11' W 076°27'0 0.0
2015-Jan-21 08:33N 39°11' W 076°27'0 0.0
2015-Jan-21 07:33N 39°11' W 076°27'0 0.0
2015-Jan-21 06:33N 39°11' W 076°27'0 0.0
2015-Jan-21 05:33N 39°11' W 076°27'0 0.0
2015-Jan-21 04:33N 39°11' W 076°27'0 0.4
2015-Jan-21 03:33N 39°11' W 076°26'1 0.9
2015-Jan-21 02:33N 39°10' W 076°25'1 1.3
2015-Jan-21 01:33N 39°11' W 076°27'0 0.4
2015-Jan-21 00:33N 39°11' W 076°26'0 0.0
2015-Jan-20 23:33N 39°11' W 076°26'0 0.0
2015-Jan-20 22:33N 39°11' W 076°26'1 0.6
2015-Jan-20 21:31N 39°10' W 076°26'0 0.3
2015-Jan-20 20:33N 39°10' W 076°25'0 0.0
2015-Jan-20 19:28N 39°10' W 076°25'1 1.4
2015-Jan-20 18:33N 39°11' W 076°27'1 1.2
2015-Jan-20 17:30N 39°10' W 076°25'0 0.0
2015-Jan-20 16:06N 39°10' W 076°25'1 1.6
2015-Jan-20 15:33N 39°11' W 076°26'1 0.5
2015-Jan-20 13:33N 39°10' W 076°25'1 0.9
2015-Jan-20 12:32N 39°11' W 076°26'0 0.3
2015-Jan-20 11:33N 39°11' W 076°27'0 0.1
2015-Jan-20 10:33N 39°11' W 076°26'0 0.1
2015-Jan-20 09:33N 39°11' W 076°27'0 0.1
2015-Jan-20 08:34N 39°11' W 076°27'0 0.0
2015-Jan-20 07:33N 39°11' W 076°27'0 0.0
2015-Jan-20 06:33N 39°11' W 076°27'0 0.0
2015-Jan-20 05:33N 39°11' W 076°27'0 0.0
2015-Jan-20 04:33N 39°11' W 076°27'0 0.2
2015-Jan-20 03:21N 39°11' W 076°26'0 0.0
2015-Jan-20 02:33N 39°11' W 076°26'0 0.0
2015-Jan-20 01:33N 39°11' W 076°26'0 0.0
2015-Jan-20 00:33N 39°11' W 076°26'0 0.0
2015-Jan-19 23:33N 39°11' W 076°26'0 0.0
2015-Jan-19 22:34N 39°11' W 076°26'1 1.0
2015-Jan-19 21:32N 39°10' W 076°25'0 0.0
2015-Jan-19 20:21N 39°10' W 076°25'0 0.0
2015-Jan-19 18:15N 39°10' W 076°25'1 1.8
2015-Jan-19 17:33N 39°11' W 076°27'0 0.2
2015-Jan-19 16:32N 39°11' W 076°26'0 0.0
2015-Jan-19 15:33N 39°11' W 076°26'1 1.1
2015-Jan-19 14:33N 39°10' W 076°25'1 1.1
2015-Jan-19 13:33N 39°11' W 076°26'1 1.0
2015-Jan-19 12:33N 39°10' W 076°25'0 0.4
2015-Jan-19 11:33N 39°10' W 076°25'13 2.2
2015-Jan-19 05:33N 38°57' W 076°24'6 1.9
2015-Jan-19 02:10N 38°51' W 076°26'5 8.5
2015-Jan-19 01:33N 38°56' W 076°25'8 7.8
2015-Jan-19 00:32N 39°04' W 076°24'6 6.6
2015-Jan-18 23:33N 39°10' W 076°26'1 0.8
2015-Jan-18 22:33N 39°11' W 076°26'2 0.4
2015-Jan-18 18:24N 39°11' W 076°28'5 6.0
2015-Jan-18 17:33N 39°14' W 076°34'0 0.0
2015-Jan-18 16:33N 39°14' W 076°34'0 0.0
2015-Jan-18 15:33N 39°14' W 076°34'0 0.0
2015-Jan-18 14:33N 39°14' W 076°34'0 0.0
2015-Jan-18 13:33N 39°14' W 076°34'0 0.0
2015-Jan-18 12:33N 39°14' W 076°34'5 4.7
2015-Jan-18 11:33N 39°11' W 076°29'3 3.0
2015-Jan-18 10:32N 39°10' W 076°25'0 0.1
2015-Jan-18 09:33N 39°10' W 076°25'0 0.0
2015-Jan-18 08:33N 39°10' W 076°25'0 0.0
2015-Jan-18 07:33N 39°10' W 076°25'0 0.0
2015-Jan-18 06:33N 39°10' W 076°25'0 0.0
2015-Jan-18 05:33N 39°10' W 076°25'  
Track history (hours):
 
Tides and Currents Weather Stations Pressure Air Temp Water Temp Dewpoint Dewpoint Depression Visibility Wind Speed Wind Dir Waves Ship Positions

Captain Ed

Owner: Norfolk Dredging Company, Chesapeake, VA. More information available from US FCC via Universal Licensing System and Coast Guard Vessel Documentation Center.

Last reported at 2015-Jan-28 05:33 UTC. Time now 2015-Jan-28 06:37 UTC.
Position N 39°11' W 076°26'.

Length 22 m; draft 3 m.

Type: Tug. MMSI: 367473210.

Date/timePositionNaut miles runAvg speedWind from/ knotsBaromVisibWave heightAir tempDewpointWater temp
2015-Jan-28 05:33N 39°11' W 076°26'0 0.0
2015-Jan-28 04:30N 39°11' W 076°26'0 0.0
2015-Jan-28 03:32N 39°11' W 076°26'0 0.0
2015-Jan-28 02:33N 39°11' W 076°26'0 0.0
2015-Jan-28 01:33N 39°11' W 076°26'0 0.0
2015-Jan-28 00:33N 39°11' W 076°26'0 0.0
2015-Jan-27 23:33N 39°11' W 076°26'0 0.0
2015-Jan-27 22:33N 39°11' W 076°26'0 0.4
2015-Jan-27 21:33N 39°11' W 076°27'0 0.4
2015-Jan-27 20:28N 39°11' W 076°26'1 0.7
2015-Jan-27 19:33N 39°10' W 076°26'1 0.5
2015-Jan-27 18:33N 39°10' W 076°25'1 0.6
2015-Jan-27 16:33N 39°11' W 076°26'0 0.5
2015-Jan-27 15:33N 39°10' W 076°26'0 0.0
2015-Jan-27 14:31N 39°10' W 076°26'1 0.7
2015-Jan-27 13:33N 39°10' W 076°25'1 0.7
2015-Jan-27 12:27N 39°10' W 076°26'0 0.0
2015-Jan-27 11:27N 39°10' W 076°26'0 0.0
2015-Jan-27 10:30N 39°10' W 076°26'0 0.0
2015-Jan-27 09:11N 39°10' W 076°26'0 0.0
2015-Jan-27 08:33N 39°10' W 076°26'0 0.0
2015-Jan-27 07:33N 39°10' W 076°26'0 0.0
2015-Jan-27 06:33N 39°11' W 076°26'0 0.0
2015-Jan-27 05:33N 39°11' W 076°26'0 0.0
2015-Jan-27 04:33N 39°11' W 076°26'0 0.0
2015-Jan-27 03:33N 39°11' W 076°26'0 0.0
2015-Jan-27 02:33N 39°11' W 076°26'0 0.0
2015-Jan-27 01:33N 39°11' W 076°26'0 0.0
2015-Jan-27 00:33N 39°11' W 076°26'0 0.0
2015-Jan-26 23:33N 39°11' W 076°26'1 0.8
2015-Jan-26 22:33N 39°10' W 076°25'0 0.0
2015-Jan-26 21:33N 39°10' W 076°25'0 0.0
2015-Jan-26 20:33N 39°10' W 076°25'0 0.0
2015-Jan-26 19:33N 39°10' W 076°25'1 0.7
2015-Jan-26 18:33N 39°10' W 076°26'0 0.2
2015-Jan-26 17:33N 39°11' W 076°26'0 0.0
2015-Jan-26 16:33N 39°11' W 076°26'0 0.0
2015-Jan-26 15:34N 39°11' W 076°26'0 0.0
2015-Jan-26 14:34N 39°11' W 076°26'0 0.0
2015-Jan-26 13:33N 39°11' W 076°26'0 0.0
2015-Jan-26 12:33N 39°11' W 076°26'0 0.0
2015-Jan-26 11:33N 39°11' W 076°26'0 0.0
2015-Jan-26 10:34N 39°11' W 076°26'0 0.0
2015-Jan-26 09:28N 39°11' W 076°26'0 0.1
2015-Jan-26 08:31N 39°11' W 076°26'0 0.1
2015-Jan-26 07:33N 39°11' W 076°26'0 0.0
2015-Jan-26 06:33N 39°11' W 076°26'0 0.0
2015-Jan-26 05:33N 39°11' W 076°26'0 0.0
2015-Jan-26 04:33N 39°11' W 076°26'0 0.0
2015-Jan-26 03:34N 39°11' W 076°26'0 0.0
2015-Jan-26 02:33N 39°10' W 076°26'0 0.0
2015-Jan-26 01:33N 39°10' W 076°26'0 0.0
2015-Jan-26 00:34N 39°10' W 076°26'0 0.0
2015-Jan-25 23:34N 39°10' W 076°26'0 0.1
2015-Jan-25 22:32N 39°10' W 076°26'0 0.0
2015-Jan-25 21:33N 39°10' W 076°26'0 0.0
2015-Jan-25 20:33N 39°10' W 076°26'0 0.0
2015-Jan-25 19:27N 39°10' W 076°26'0 0.0
2015-Jan-25 18:22N 39°10' W 076°26'0 0.0
2015-Jan-25 17:17N 39°10' W 076°26'1 0.7
2015-Jan-25 16:09N 39°10' W 076°25'1 1.2
2015-Jan-25 15:34N 39°10' W 076°26'1 0.6
2015-Jan-25 14:33N 39°10' W 076°25'1 0.7
2015-Jan-25 13:33N 39°10' W 076°26'0 0.0
2015-Jan-25 12:32N 39°10' W 076°26'0 0.0
2015-Jan-25 11:33N 39°10' W 076°26'0 0.0
2015-Jan-25 10:33N 39°10' W 076°26'0 0.4
2015-Jan-25 09:33N 39°10' W 076°26'0 0.4
2015-Jan-25 08:33N 39°10' W 076°26'0 0.0
2015-Jan-25 07:33N 39°10' W 076°26'0 0.0
2015-Jan-25 06:32N 39°10' W 076°26'0 0.0
2015-Jan-25 05:33N 39°11' W 076°26'0 0.0
2015-Jan-25 04:33N 39°11' W 076°26'0 0.0
2015-Jan-25 03:33N 39°11' W 076°26'9 7.1
2015-Jan-25 02:16N 39°02' W 076°23'3 0.7
2015-Jan-24 21:31N 38°59' W 076°23'8 8.1
2015-Jan-24 20:33N 39°07' W 076°24'5 4.5
2015-Jan-24 19:33N 39°11' W 076°26'0 0.0
2015-Jan-24 18:33N 39°11' W 076°26'0 0.1
2015-Jan-24 17:32N 39°11' W 076°26'0 0.0
2015-Jan-24 16:33N 39°11' W 076°26'0 0.1
2015-Jan-24 15:30N 39°11' W 076°26'0 0.4
2015-Jan-24 14:33N 39°11' W 076°26'0 0.3
2015-Jan-24 13:32N 39°11' W 076°26'0 0.0
2015-Jan-24 12:26N 39°11' W 076°26'0 0.0
2015-Jan-24 11:23N 39°11' W 076°26'1 1.2
2015-Jan-24 10:31N 39°10' W 076°25'0 0.1
2015-Jan-24 09:33N 39°10' W 076°25'19 1.9
2015-Jan-23 23:15N 38°51' W 076°25'5 6.4
2015-Jan-23 22:31N 38°55' W 076°24'7 6.8
2015-Jan-23 21:30N 39°02' W 076°23'7 7.1
2015-Jan-23 20:33N 39°09' W 076°25'1 1.1
2015-Jan-23 19:20N 39°10' W 076°25'2 2.0
2015-Jan-23 18:33N 39°11' W 076°27'7 6.8
2015-Jan-23 17:33N 39°15' W 076°34'0 0.0
2015-Jan-23 16:13N 39°15' W 076°34'0 0.0
2015-Jan-23 15:28N 39°15' W 076°34'0 0.0
2015-Jan-23 14:31N 39°15' W 076°34'0 0.0
2015-Jan-23 13:33N 39°15' W 076°34'0 0.0
2015-Jan-23 12:33N 39°15' W 076°34'2 1.9
2015-Jan-23 11:33N 39°14' W 076°32'6 6.4
2015-Jan-23 10:33N 39°10' W 076°25'1 0.7
2015-Jan-23 09:33N 39°10' W 076°26'1 0.6
2015-Jan-23 08:20N 39°10' W 076°25'0 0.0
2015-Jan-23 05:33N 39°10' W 076°25'0 0.0
2015-Jan-23 04:33N 39°10' W 076°25'1 0.6
2015-Jan-23 03:32N 39°10' W 076°26'1 0.6
2015-Jan-23 02:33N 39°10' W 076°25'0 0.0
2015-Jan-23 01:33N 39°10' W 076°25'0 0.0
2015-Jan-23 00:33N 39°10' W 076°25'14 2.6
2015-Jan-22 19:16N 38°56' W 076°24'1010.2
2015-Jan-22 18:19N 39°06' W 076°24'4 2.0
2015-Jan-22 16:18N 39°10' W 076°25'0 0.0
2015-Jan-22 15:16N 39°10' W 076°25'0 0.0
2015-Jan-22 14:33N 39°10' W 076°25'1 1.0
2015-Jan-22 13:33N 39°11' W 076°26'0 0.0
2015-Jan-22 12:33N 39°11' W 076°26'0 0.0
2015-Jan-22 11:33N 39°11' W 076°26'0 0.0
2015-Jan-22 10:33N 39°11' W 076°26'0 0.1
2015-Jan-22 09:31N 39°11' W 076°26'0 0.1
2015-Jan-22 08:33N 39°11' W 076°26'0 0.1
2015-Jan-22 07:33N 39°11' W 076°26'0 0.0
2015-Jan-22 06:33N 39°11' W 076°26'0 0.0
2015-Jan-22 05:33N 39°11' W 076°26'0 0.0
2015-Jan-22 04:33N 39°11' W 076°26'0 0.0
2015-Jan-22 03:33N 39°11' W 076°26'0 0.0
2015-Jan-22 02:32N 39°11' W 076°26'0 0.0
2015-Jan-22 01:33N 39°11' W 076°26'0 0.4
2015-Jan-22 00:33N 39°11' W 076°27'0 0.0
2015-Jan-21 23:33N 39°11' W 076°27'1 1.8
2015-Jan-21 22:49N 39°10' W 076°25'0 0.7
2015-Jan-21 22:46N 39°10' W 076°25'1 4.4
2015-Jan-21 22:34N 39°11' W 076°26'0 0.4
2015-Jan-21 21:33N 39°11' W 076°27'0 0.0
2015-Jan-21 20:33N 39°11' W 076°27'0 0.5
2015-Jan-21 19:34N 39°11' W 076°26'0 0.0
2015-Jan-21 18:33N 39°11' W 076°26'0 0.0
2015-Jan-21 17:33N 39°11' W 076°26'0 0.1
2015-Jan-21 16:33N 39°11' W 076°26'0 0.1
2015-Jan-21 15:33N 39°11' W 076°26'0 0.5
2015-Jan-21 14:33N 39°11' W 076°27'0 0.0
2015-Jan-21 13:33N 39°11' W 076°27'0 0.2
2015-Jan-21 12:33N 39°11' W 076°26'0 0.2
2015-Jan-21 11:31N 39°11' W 076°27'0 0.0
2015-Jan-21 10:33N 39°11' W 076°27'0 0.0
2015-Jan-21 09:33N 39°11' W 076°27'0 0.0
2015-Jan-21 08:33N 39°11' W 076°27'0 0.0
2015-Jan-21 07:33N 39°11' W 076°27'0 0.0
2015-Jan-21 06:33N 39°11' W 076°27'0 0.0
2015-Jan-21 05:33N 39°11' W 076°27'0 0.0
2015-Jan-21 04:33N 39°11' W 076°27'0 0.4
2015-Jan-21 03:33N 39°11' W 076°26'1 0.9
2015-Jan-21 02:33N 39°10' W 076°25'1 1.3
2015-Jan-21 01:33N 39°11' W 076°27'0 0.4
2015-Jan-21 00:33N 39°11' W 076°26'0 0.0
2015-Jan-20 23:33N 39°11' W 076°26'0 0.0
2015-Jan-20 22:33N 39°11' W 076°26'1 0.6
2015-Jan-20 21:31N 39°10' W 076°26'0 0.3
2015-Jan-20 20:33N 39°10' W 076°25'0 0.0
2015-Jan-20 19:28N 39°10' W 076°25'1 1.4
2015-Jan-20 18:33N 39°11' W 076°27'1 1.2
2015-Jan-20 17:30N 39°10' W 076°25'0 0.0
2015-Jan-20 16:06N 39°10' W 076°25'1 1.6
2015-Jan-20 15:33N 39°11' W 076°26'1 0.5
2015-Jan-20 13:33N 39°10' W 076°25'1 0.9
2015-Jan-20 12:32N 39°11' W 076°26'0 0.3
2015-Jan-20 11:33N 39°11' W 076°27'0 0.1
2015-Jan-20 10:33N 39°11' W 076°26'0 0.1
2015-Jan-20 09:33N 39°11' W 076°27'0 0.1
2015-Jan-20 08:34N 39°11' W 076°27'0 0.0
2015-Jan-20 07:33N 39°11' W 076°27'0 0.0
2015-Jan-20 06:33N 39°11' W 076°27'0 0.0
2015-Jan-20 05:33N 39°11' W 076°27'0 0.0
2015-Jan-20 04:33N 39°11' W 076°27'0 0.2
2015-Jan-20 03:21N 39°11' W 076°26'0 0.0
2015-Jan-20 02:33N 39°11' W 076°26'0 0.0
2015-Jan-20 01:33N 39°11' W 076°26'0 0.0
2015-Jan-20 00:33N 39°11' W 076°26'0 0.0
2015-Jan-19 23:33N 39°11' W 076°26'0 0.0
2015-Jan-19 22:34N 39°11' W 076°26'1 1.0
2015-Jan-19 21:32N 39°10' W 076°25'0 0.0
2015-Jan-19 20:21N 39°10' W 076°25'0 0.0
2015-Jan-19 18:15N 39°10' W 076°25'1 1.8
2015-Jan-19 17:33N 39°11' W 076°27'0 0.2
2015-Jan-19 16:32N 39°11' W 076°26'0 0.0
2015-Jan-19 15:33N 39°11' W 076°26'1 1.1
2015-Jan-19 14:33N 39°10' W 076°25'1 1.1
2015-Jan-19 13:33N 39°11' W 076°26'1 1.0
2015-Jan-19 12:33N 39°10' W 076°25'0 0.4
2015-Jan-19 11:33N 39°10' W 076°25'13 2.2
2015-Jan-19 05:33N 38°57' W 076°24'6 1.9
2015-Jan-19 02:10N 38°51' W 076°26'5 8.5
2015-Jan-19 01:33N 38°56' W 076°25'8 7.8
2015-Jan-19 00:32N 39°04' W 076°24'6 6.6
2015-Jan-18 23:33N 39°10' W 076°26'1 0.8
2015-Jan-18 22:33N 39°11' W 076°26'2 0.4
2015-Jan-18 18:24N 39°11' W 076°28'5 6.0
2015-Jan-18 17:33N 39°14' W 076°34'0 0.0
2015-Jan-18 16:33N 39°14' W 076°34'0 0.0
2015-Jan-18 15:33N 39°14' W 076°34'0 0.0
2015-Jan-18 14:33N 39°14' W 076°34'0 0.0
2015-Jan-18 13:33N 39°14' W 076°34'0 0.0
2015-Jan-18 12:33N 39°14' W 076°34'5 4.7
2015-Jan-18 11:33N 39°11' W 076°29'3 3.0
2015-Jan-18 10:32N 39°10' W 076°25'0 0.1
2015-Jan-18 09:33N 39°10' W 076°25'0 0.0
2015-Jan-18 08:33N 39°10' W 076°25'0 0.0
2015-Jan-18 07:33N 39°10' W 076°25'0 0.0
2015-Jan-18 06:33N 39°10' W 076°25'0 0.0
2015-Jan-18 05:33N 39°10' W 076°25'  

Dump ship's entire track history